Time;durP1;ratioP1;P1;durP2;ratioP2;P2;SDS_P1;SDS_P2;PMS_P1;PMS_P2;Temp;Humidity;BMP_temperature;BMP_pressure;BME280_temperature;BME280_humidity;BME280_pressure;Samples;Min_cycle;Max_cycle;Signal;HPM_P1;HPM_P2
2021/08/05 00:02:22;;;;;;;0.00;0.00;;;;;;;15.90;100.00;100237.03;5040594;28;20043;-62
2021/08/05 00:04:48;;;;;;;0.03;0.00;;;;;;;15.95;100.00;100250.25;5047364;28;20071;-60
2021/08/05 00:07:14;;;;;;;0.05;0.00;;;;;;;15.89;100.00;100242.41;5072293;28;20047;-62
2021/08/05 00:09:43;;;;;;;0.00;0.00;;;;;;;15.85;100.00;100247.00;5060378;28;20126;-63
2021/08/05 00:12:13;;;;;;;0.00;0.00;;;;;;;15.89;100.00;100247.75;5050202;28;20133;-60
2021/08/05 00:14:41;;;;;;;0.00;0.00;;;;;;;15.82;100.00;100231.06;5055099;28;20044;-62
2021/08/05 00:17:08;;;;;;;0.00;0.00;;;;;;;15.97;100.00;100248.38;5034115;28;20079;-61
2021/08/05 00:19:39;;;;;;;0.00;0.00;;;;;;;15.94;100.00;100254.72;5043949;28;20044;-61
2021/08/05 00:22:04;;;;;;;0.00;0.00;;;;;;;15.87;100.00;100246.97;5056311;28;20709;-68
2021/08/05 00:24:30;;;;;;;0.00;0.00;;;;;;;15.72;100.00;100253.69;5066467;28;20161;-60
2021/08/05 00:27:08;;;;;;;0.00;0.00;;;;;;;15.69;100.00;100237.75;5029999;28;20040;-62
2021/08/05 00:29:34;;;;;;;0.00;0.00;;;;;;;15.56;100.00;100249.78;5033337;28;20048;-66
2021/08/05 00:32:00;;;;;;;0.00;0.00;;;;;;;15.62;100.00;100252.25;5036642;28;20044;-63
2021/08/05 00:34:26;;;;;;;0.00;0.00;;;;;;;15.75;100.00;100250.03;5024473;28;20182;-56
2021/08/05 00:36:53;;;;;;;0.00;0.00;;;;;;;15.80;100.00;100245.41;5042622;28;20456;-62
2021/08/05 00:39:20;;;;;;;0.00;0.00;;;;;;;15.79;100.00;100244.53;5040601;28;20040;-57
2021/08/05 00:41:46;;;;;;;0.00;0.00;;;;;;;15.82;100.00;100243.56;5052628;28;20044;-61
2021/08/05 00:44:12;;;;;;;0.00;0.00;;;;;;;15.80;100.00;100235.59;5058203;28;20041;-61
2021/08/05 00:46:39;;;;;;;0.00;0.00;;;;;;;15.80;100.00;100245.41;5058129;28;20048;-66
2021/08/05 00:49:10;;;;;;;0.00;0.00;;;;;;;15.75;100.00;100244.69;5076428;28;20423;-58
2021/08/05 00:51:36;;;;;;;0.00;0.00;;;;;;;15.75;100.00;100234.00;5045453;28;20044;-57
2021/08/05 00:54:03;;;;;;;0.00;0.00;;;;;;;15.86;100.00;100255.91;5057805;28;20063;-61
2021/08/05 00:56:32;;;;;;;0.00;0.00;;;;;;;15.65;100.00;100220.06;5025994;28;20059;-62
2021/08/05 00:58:59;;;;;;;0.00;0.00;;;;;;;15.82;100.00;100264.97;5013452;28;20080;-58
2021/08/05 01:01:36;;;;;;;0.00;0.00;;;;;;;15.76;100.00;100241.97;5052727;28;20404;-61
2021/08/05 01:04:02;;;;;;;0.00;0.00;;;;;;;15.79;100.00;100249.00;5059214;28;20825;-58
2021/08/05 01:07:06;;;;;;;0.00;0.00;;;;;;;15.73;100.00;100247.41;5047946;28;20057;-60
2021/08/05 01:09:35;;;;;;;0.00;0.00;;;;;;;15.63;100.00;100231.75;5018243;28;20045;-59
2021/08/05 01:12:52;;;;;;;0.00;0.00;;;;;;;15.75;100.00;100245.56;4997116;28;20049;-62
2021/08/05 01:15:27;;;;;;;0.00;0.00;;;;;;;15.76;100.00;100239.31;4947223;28;20157;-63
2021/08/05 01:17:59;;;;;;;0.32;0.00;;;;;;;15.77;100.00;100248.19;4955718;28;20527;-62
2021/08/05 01:20:26;;;;;;;;;;;;;;;15.78;100.00;100250.81;4983017;28;20483;-63
2021/08/05 01:23:20;;;;;;;0.00;0.00;;;;;;;15.64;100.00;100231.69;4962698;28;19917;-63
2021/08/05 01:25:46;;;;;;;0.00;0.00;;;;;;;15.72;100.00;100259.03;4982742;28;20134;-61
2021/08/05 01:28:13;;;;;;;0.08;0.00;;;;;;;15.69;100.00;100250.22;4979953;28;20144;-62
2021/08/05 01:30:44;;;;;;;0.00;0.00;;;;;;;15.70;100.00;100254.69;4952625;28;20058;-62
2021/08/05 01:33:12;;;;;;;0.00;0.00;;;;;;;15.65;100.00;100252.16;4997222;28;20057;-62
2021/08/05 01:35:41;;;;;;;0.00;0.00;;;;;;;15.65;100.00;100260.16;4982879;28;20053;-61
2021/08/05 01:38:08;;;;;;;0.00;0.00;;;;;;;15.65;100.00;100257.50;4966328;28;20078;-65
2021/08/05 01:40:35;;;;;;;0.00;0.00;;;;;;;15.57;100.00;100242.63;4965590;28;20050;-62
2021/08/05 01:43:01;;;;;;;0.00;0.00;;;;;;;15.50;100.00;100235.75;4949575;28;20042;-61
2021/08/05 01:45:28;;;;;;;0.00;0.00;;;;;;;15.63;100.00;100256.66;4959598;28;20087;-66
2021/08/05 01:47:56;;;;;;;0.03;0.00;;;;;;;15.65;100.00;100264.63;4956292;28;20056;-63
2021/08/05 01:50:23;;;;;;;0.00;0.00;;;;;;;15.63;100.00;100269.16;5020161;28;20048;-62
2021/08/05 01:52:49;;;;;;;0.00;0.00;;;;;;;15.50;100.00;100254.44;5005629;28;20354;-62
2021/08/05 01:55:16;;;;;;;0.00;0.00;;;;;;;15.63;100.00;100267.34;4984943;28;20076;-63
2021/08/05 01:57:42;;;;;;;0.00;0.00;;;;;;;15.51;100.00;100254.38;5016367;28;20100;-61
2021/08/05 02:00:12;;;;;;;0.00;0.00;;;;;;;15.56;100.00;100259.59;5024043;28;20069;-63
2021/08/05 02:02:41;;;;;;;0.00;0.00;;;;;;;15.61;100.00;100271.00;5051447;28;20049;-60
2021/08/05 02:05:21;;;;;;;0.08;0.00;;;;;;;15.60;100.00;100275.50;5018054;28;20056;-62
2021/08/05 02:08:00;;;;;;;0.00;0.00;;;;;;;15.58;100.00;100266.63;5027726;28;20519;-62
2021/08/05 02:10:36;;;;;;;0.00;0.00;;;;;;;15.46;100.00;100274.19;5043084;28;20049;-61
2021/08/05 02:13:13;;;;;;;0.00;0.00;;;;;;;15.46;100.00;100277.72;5043612;28;20055;-59
2021/08/05 02:15:46;;;;;;;0.00;0.00;;;;;;;15.47;100.00;100279.44;5054705;28;20059;-62
2021/08/05 02:18:14;;;;;;;0.00;0.00;;;;;;;15.27;100.00;100265.81;5029265;28;20052;-59
2021/08/05 02:20:45;;;;;;;0.00;0.00;;;;;;;15.17;100.00;100264.34;5052795;28;20449;-66
2021/08/05 02:23:13;;;;;;;0.00;0.00;;;;;;;15.12;100.00;100270.75;5045907;28;20051;-61
2021/08/05 02:25:42;;;;;;;0.00;0.00;;;;;;;15.16;100.00;100270.63;5041037;28;20066;-61
2021/08/05 02:28:09;;;;;;;0.00;0.00;;;;;;;15.21;100.00;100278.47;5044191;28;20042;-61
2021/08/05 02:30:36;;;;;;;0.00;0.00;;;;;;;15.26;100.00;100290.78;5055028;28;20052;-64
2021/08/05 02:33:04;;;;;;;0.00;0.00;;;;;;;15.22;100.00;100286.47;5046509;28;20044;-64
2021/08/05 02:35:35;;;;;;;0.00;0.00;;;;;;;15.35;100.00;100287.84;5036078;28;20052;-62
2021/08/05 02:38:02;;;;;;;0.00;0.00;;;;;;;15.38;100.00;100295.78;5026060;28;20045;-64
2021/08/05 02:40:31;;;;;;;0.00;0.00;;;;;;;15.39;100.00;100285.97;5060274;28;20047;-63
2021/08/05 02:42:59;;;;;;;0.00;0.00;;;;;;;15.43;100.00;100275.13;5033859;28;20047;-63
2021/08/05 02:45:25;;;;;;;0.00;0.00;;;;;;;15.53;100.00;100279.28;5033125;28;20102;-63
2021/08/05 02:47:52;;;;;;;0.00;0.00;;;;;;;15.49;100.00;100288.31;5049394;28;20546;-62
2021/08/05 02:50:19;;;;;;;0.00;0.00;;;;;;;15.51;100.00;100270.41;5031135;28;20037;-61
2021/08/05 02:52:45;;;;;;;0.10;0.00;;;;;;;15.67;100.00;100279.69;5009210;28;20091;-65
2021/08/05 02:55:14;;;;;;;0.00;0.00;;;;;;;15.66;100.00;100291.31;5058403;28;20040;-62
2021/08/05 02:57:41;;;;;;;0.00;0.00;;;;;;;15.70;100.00;100295.63;5045803;28;20044;-62
2021/08/05 03:00:08;;;;;;;0.00;0.00;;;;;;;15.77;100.00;100294.53;5044278;28;20052;-62
2021/08/05 03:02:35;;;;;;;0.00;0.00;;;;;;;15.64;100.00;100262.88;5044753;28;20061;-63
2021/08/05 03:05:03;;;;;;;0.00;0.00;;;;;;;15.73;100.00;100294.66;5044092;28;20346;-62
2021/08/05 03:07:29;;;;;;;0.00;0.00;;;;;;;15.81;100.00;100300.63;5046362;28;20036;-64
2021/08/05 03:09:54;;;;;;;0.00;0.00;;;;;;;15.82;100.00;100289.03;5056158;28;20041;-67
2021/08/05 03:12:20;;;;;;;0.00;0.00;;;;;;;15.85;100.00;100283.56;5043385;28;20028;-64
2021/08/05 03:14:46;;;;;;;0.00;0.00;;;;;;;15.89;100.00;100283.41;5062915;28;20045;-64
2021/08/05 03:17:13;;;;;;;0.00;0.00;;;;;;;15.96;100.00;100284.09;5065101;28;20361;-64
2021/08/05 03:19:39;;;;;;;0.00;0.00;;;;;;;16.01;100.00;100283.00;5051853;28;20055;-63
2021/08/05 03:22:06;;;;;;;0.00;0.00;;;;;;;16.06;100.00;100273.03;5041683;28;20040;-65
2021/08/05 03:24:33;;;;;;;0.00;0.00;;;;;;;16.09;100.00;100283.63;5049684;28;20100;-64
2021/08/05 03:26:59;;;;;;;0.00;0.00;;;;;;;16.08;100.00;100265.84;5048894;28;20052;-69
2021/08/05 03:29:26;;;;;;;0.00;0.00;;;;;;;16.17;100.00;100269.97;5027684;28;20500;-64
2021/08/05 03:31:52;;;;;;;0.00;0.00;;;;;;;16.15;100.00;100266.50;5047393;28;20051;-62
2021/08/05 03:34:20;;;;;;;0.00;0.00;;;;;;;16.28;100.00;100274.03;5066271;28;20032;-66
2021/08/05 03:36:46;;;;;;;0.00;0.00;;;;;;;16.34;100.00;100278.31;5045135;28;20175;-65
2021/08/05 03:39:12;;;;;;;0.00;0.00;;;;;;;16.38;100.00;100272.78;5055455;28;20416;-65
2021/08/05 03:41:38;;;;;;;0.00;0.00;;;;;;;16.36;100.00;100281.78;5068235;28;20488;-65
2021/08/05 03:44:05;;;;;;;0.00;0.00;;;;;;;16.38;100.00;100288.84;5032276;28;20184;-67
2021/08/05 03:46:30;;;;;;;0.00;0.00;;;;;;;16.25;100.00;100282.16;5037956;28;20462;-62
2021/08/05 03:48:56;;;;;;;0.00;0.00;;;;;;;16.21;100.00;100279.63;5080845;28;20040;-62
2021/08/05 03:51:22;;;;;;;0.00;0.00;;;;;;;15.98;100.00;100283.09;5056331;28;20044;-63
2021/08/05 03:53:48;;;;;;;0.00;0.00;;;;;;;15.82;100.00;100283.69;5053288;28;20420;-68
2021/08/05 03:56:14;;;;;;;0.00;0.00;;;;;;;15.89;100.00;100278.06;5043355;28;20049;-64
2021/08/05 03:58:40;;;;;;;0.00;0.00;;;;;;;15.94;100.00;100283.28;5032322;28;20412;-61
2021/08/05 04:01:05;;;;;;;0.00;0.00;;;;;;;16.07;100.00;100265.88;5040928;28;20037;-64
2021/08/05 04:03:31;;;;;;;0.10;0.00;;;;;;;16.29;100.00;100264.19;5041822;28;20036;-63
2021/08/05 04:05:57;;;;;;;0.00;0.00;;;;;;;16.56;100.00;100277.53;5056821;28;20145;-66
2021/08/05 04:08:23;;;;;;;0.00;0.00;;;;;;;16.49;100.00;100262.59;5054159;28;20081;-61
2021/08/05 04:10:49;;;;;;;0.00;0.00;;;;;;;16.62;100.00;100281.78;5046003;28;20182;-66
2021/08/05 04:13:17;;;;;;;0.10;0.00;;;;;;;16.55;100.00;100264.19;5057106;28;20093;-69
2021/08/05 04:15:44;;;;;;;0.00;0.00;;;;;;;16.49;100.00;100281.34;5049016;28;20139;-63
2021/08/05 04:18:10;;;;;;;0.15;0.00;;;;;;;16.82;100.00;100276.56;5029998;28;20052;-63
2021/08/05 04:20:36;;;;;;;0.00;0.00;;;;;;;16.51;100.00;100283.97;5051956;28;20036;-63
2021/08/05 04:23:03;;;;;;;0.00;0.00;;;;;;;16.33;100.00;100266.72;5032486;28;20047;-62
2021/08/05 04:25:29;;;;;;;0.00;0.00;;;;;;;16.56;100.00;100274.84;5051013;28;20041;-64
2021/08/05 04:27:55;;;;;;;0.00;0.00;;;;;;;16.76;100.00;100261.59;5061504;28;20052;-70
2021/08/05 04:30:25;;;;;;;0.03;0.00;;;;;;;16.95;100.00;100278.72;5029220;28;20055;-64
2021/08/05 04:32:51;;;;;;;0.00;0.00;;;;;;;17.15;100.00;100265.44;5035361;28;20132;-63
2021/08/05 04:35:18;;;;;;;0.00;0.00;;;;;;;17.13;100.00;100228.94;5034500;28;20056;-61
2021/08/05 04:37:58;;;;;;;0.00;0.00;;;;;;;17.48;100.00;100274.88;5058401;28;20422;-64
2021/08/05 04:40:26;;;;;;;0.00;0.00;;;;;;;17.62;100.00;100275.19;5047561;28;20045;-63
2021/08/05 04:42:53;;;;;;;0.03;0.00;;;;;;;17.72;100.00;100278.34;5028110;28;20501;-67
2021/08/05 04:45:20;;;;;;;0.00;0.00;;;;;;;17.80;100.00;100270.88;5043762;28;20059;-63
2021/08/05 04:48:05;;;;;;;0.00;0.00;;;;;;;17.77;100.00;100253.09;5053964;28;20468;-66
2021/08/05 04:50:33;;;;;;;0.00;0.00;;;;;;;17.93;100.00;100267.63;5053696;28;20052;-65
2021/08/05 04:53:01;;;;;;;0.08;0.00;;;;;;;17.81;100.00;100249.34;5067828;28;20136;-61
2021/08/05 04:55:28;;;;;;;0.00;0.00;;;;;;;18.00;100.00;100262.88;5046736;28;20051;-67
2021/08/05 04:58:00;;;;;;;0.43;0.00;;;;;;;18.12;100.00;100270.41;5043286;28;20453;-69
2021/08/05 05:00:29;;;;;;;0.00;0.00;;;;;;;18.11;100.00;100268.66;5044401;28;20068;-60
2021/08/05 05:02:55;;;;;;;0.00;0.00;;;;;;;18.14;100.00;100271.22;5045597;28;20040;-62
2021/08/05 05:05:22;;;;;;;0.00;0.00;;;;;;;18.03;100.00;100249.31;5045918;28;20052;-67
2021/08/05 05:07:49;;;;;;;0.00;0.00;;;;;;;18.20;100.00;100262.03;5026313;28;20033;-62
2021/08/05 05:10:16;;;;;;;0.00;0.00;;;;;;;18.22;100.00;100260.13;5046472;28;20078;-62
2021/08/05 05:12:45;;;;;;;0.00;0.00;;;;;;;18.33;100.00;100276.66;5046578;28;20095;-63
2021/08/05 05:15:13;;;;;;;0.00;0.00;;;;;;;18.32;98.96;100256.13;5022778;28;20040;-66
2021/08/05 05:17:41;;;;;;;0.00;0.00;;;;;;;18.45;97.60;100266.31;5011539;28;20386;-66
2021/08/05 05:20:09;;;;;;;0.00;0.00;;;;;;;18.59;96.68;100274.59;5047649;28;20045;-64
2021/08/05 05:22:36;;;;;;;0.00;0.00;;;;;;;18.60;97.47;100264.75;5028447;28;20064;-65
2021/08/05 05:25:04;;;;;;;0.00;0.00;;;;;;;18.73;96.29;100276.69;5047884;28;20481;-63
2021/08/05 05:27:31;;;;;;;0.00;0.00;;;;;;;18.84;96.70;100280.66;5031797;28;20464;-64
2021/08/05 05:30:00;;;;;;;0.00;0.00;;;;;;;18.97;97.26;100283.63;5017929;28;20044;-73
2021/08/05 05:32:28;;;;;;;0.00;0.00;;;;;;;19.07;97.53;100285.81;5063114;28;20896;-64
2021/08/05 05:34:55;;;;;;;0.00;0.00;;;;;;;18.91;99.50;100260.59;5046274;28;20129;-66
2021/08/05 05:37:22;;;;;;;0.00;0.00;;;;;;;18.85;100.00;100279.69;5028045;28;20045;-63
2021/08/05 05:39:52;;;;;;;0.00;0.00;;;;;;;18.85;100.00;100281.50;5062473;28;20124;-63
2021/08/05 05:42:19;;;;;;;0.00;0.00;;;;;;;18.97;100.00;100264.81;5046641;28;20044;-62
2021/08/05 05:44:47;;;;;;;0.00;0.00;;;;;;;18.82;99.20;100278.97;5042731;28;20053;-70
2021/08/05 05:47:13;;;;;;;0.00;0.00;;;;;;;19.01;97.96;100272.69;5042749;28;20075;-63
2021/08/05 05:49:40;;;;;;;0.00;0.00;;;;;;;18.95;93.44;100270.25;5029005;28;20055;-64
2021/08/05 05:52:06;;;;;;;0.00;0.00;;;;;;;19.11;93.30;100275.81;5062125;28;20205;-63
2021/08/05 05:54:32;;;;;;;0.00;0.00;;;;;;;19.22;92.61;100273.50;5043913;28;20128;-68
2021/08/05 05:56:58;;;;;;;0.00;0.00;;;;;;;19.37;92.70;100272.78;5058979;28;20051;-62
2021/08/05 05:59:24;;;;;;;0.00;0.00;;;;;;;19.34;89.47;100268.44;5063084;28;20126;-66
2021/08/05 06:01:50;;;;;;;0.00;0.00;;;;;;;19.43;88.23;100273.41;5044485;28;20127;-62
2021/08/05 06:04:16;;;;;;;0.00;0.00;;;;;;;19.55;89.54;100272.81;5059954;28;20060;-65
2021/08/05 06:06:42;;;;;;;0.00;0.00;;;;;;;19.45;87.20;100263.41;5043768;28;20478;-62
2021/08/05 06:09:07;;;;;;;0.00;0.00;;;;;;;19.59;85.25;100269.03;5063913;28;20068;-64
2021/08/05 06:11:33;;;;;;;0.00;0.00;;;;;;;19.63;82.75;100265.22;5043154;28;20068;-65
2021/08/05 06:13:59;;;;;;;0.00;0.00;;;;;;;19.67;78.71;100255.19;5061706;28;20448;-63
2021/08/05 06:16:25;;;;;;;0.00;0.00;;;;;;;19.65;79.89;100238.22;5043488;28;20566;-65
2021/08/05 06:18:52;;;;;;;0.00;0.00;;;;;;;19.85;77.75;100254.25;5045206;28;20037;-62
2021/08/05 06:21:18;;;;;;;0.00;0.00;;;;;;;19.92;75.50;100264.66;5027211;28;20044;-70
2021/08/05 06:23:44;;;;;;;0.00;0.00;;;;;;;19.92;74.88;100255.69;5060879;28;20527;-64
2021/08/05 06:26:11;;;;;;;0.00;0.00;;;;;;;19.83;75.65;100246.28;5043586;28;20041;-62
2021/08/05 06:28:38;;;;;;;0.00;0.00;;;;;;;19.86;79.42;100256.88;5028669;28;20047;-62
2021/08/05 06:31:04;;;;;;;0.00;0.00;;;;;;;19.95;80.53;100242.09;5058319;28;20044;-65
2021/08/05 06:33:31;;;;;;;0.00;0.00;;;;;;;20.16;78.67;100252.69;5043980;28;20418;-63
2021/08/05 06:35:57;;;;;;;0.00;0.00;;;;;;;20.36;74.07;100259.72;5044445;28;20044;-64
2021/08/05 06:38:23;;;;;;;0.00;0.00;;;;;;;20.46;69.95;100261.84;5059355;28;20462;-69
2021/08/05 06:40:49;;;;;;;0.00;0.00;;;;;;;20.56;67.50;100255.03;5043112;28;20052;-64
2021/08/05 06:43:15;;;;;;;0.00;0.00;;;;;;;20.41;65.64;100236.97;5044122;28;20132;-66
2021/08/05 06:45:45;;;;;;;0.00;0.00;;;;;;;20.42;64.33;100252.19;5044364;28;20048;-68
2021/08/05 06:48:11;;;;;;;0.00;0.00;;;;;;;20.53;65.08;100257.88;5044653;28;20053;-65
2021/08/05 06:50:38;;;;;;;0.00;0.00;;;;;;;20.46;62.40;100258.31;5064589;28;20058;-66
2021/08/05 06:53:18;;;;;;;0.00;0.00;;;;;;;20.26;63.08;100210.84;5047864;28;20040;-78
2021/08/05 06:55:44;;;;;;;0.00;0.00;;;;;;;20.63;63.41;100239.41;5044946;28;20060;-67
2021/08/05 06:58:09;;;;;;;0.00;0.00;;;;;;;20.89;62.37;100253.22;5031421;28;20052;-66
2021/08/05 07:00:35;;;;;;;0.00;0.00;;;;;;;21.12;61.10;100252.00;5066335;28;20044;-67
2021/08/05 07:03:01;;;;;;;0.00;0.00;;;;;;;21.38;60.65;100251.44;5041497;28;20040;-82
2021/08/05 07:05:27;;;;;;;0.00;0.00;;;;;;;21.61;61.82;100245.59;5042232;28;20079;-68
2021/08/05 07:07:55;;;;;;;0.00;0.00;;;;;;;21.85;59.51;100242.41;5043098;28;20036;-66
2021/08/05 07:10:22;;;;;;;0.00;0.00;;;;;;;22.30;57.11;100252.28;5028928;28;20500;-66
2021/08/05 07:12:52;;;;;;;0.00;0.00;;;;;;;22.65;54.96;100245.66;5026258;28;20045;-72
2021/08/05 07:15:18;;;;;;;0.00;0.00;;;;;;;23.06;52.52;100253.91;5043793;28;20086;-68
2021/08/05 07:17:44;;;;;;;0.00;0.00;;;;;;;23.55;51.45;100244.38;5028779;28;20045;-67
2021/08/05 07:20:12;;;;;;;0.08;0.00;;;;;;;23.97;48.38;100242.44;5027472;28;20328;-73
2021/08/05 07:22:40;;;;;;;0.00;0.00;;;;;;;24.41;45.75;100237.56;5045086;28;20489;-68
2021/08/05 07:25:07;;;;;;;0.00;0.00;;;;;;;24.89;45.36;100236.03;5041714;28;20088;-69
2021/08/05 07:27:35;;;;;;;0.00;0.00;;;;;;;25.31;43.42;100233.84;5036691;28;20398;-74
2021/08/05 07:30:01;;;;;;;0.00;0.00;;;;;;;25.46;42.27;100240.88;5024463;28;20068;-69
2021/08/05 07:32:27;;;;;;;0.00;0.00;;;;;;;25.82;41.81;100243.56;5040652;28;20045;-68
2021/08/05 07:34:52;;;;;;;0.00;0.00;;;;;;;25.90;41.15;100235.72;5044261;28;20079;-67
2021/08/05 07:37:18;;;;;;;0.00;0.00;;;;;;;25.63;41.47;100237.75;5037866;28;20045;-68
2021/08/05 07:39:44;;;;;;;0.00;0.00;;;;;;;25.57;40.28;100221.06;5042931;28;20063;-68
2021/08/05 07:42:10;;;;;;;0.00;0.00;;;;;;;24.74;40.16;100234.41;5046744;28;20524;-66
2021/08/05 07:44:36;;;;;;;0.00;0.00;;;;;;;25.18;40.13;100229.38;5042856;28;20135;-70
2021/08/05 07:47:02;;;;;;;0.00;0.00;;;;;;;26.17;39.07;100246.38;5043577;28;20048;-66
2021/08/05 07:49:30;;;;;;;0.00;0.00;;;;;;;26.32;38.52;100245.19;5039904;28;20041;-68
2021/08/05 07:51:56;;;;;;;0.00;0.00;;;;;;;26.93;38.62;100238.59;5033386;28;20064;-67
2021/08/05 07:54:22;;;;;;;0.00;0.00;;;;;;;26.54;38.76;100225.38;5041669;28;20049;-71
2021/08/05 07:56:47;;;;;;;0.00;0.00;;;;;;;26.23;39.55;100237.75;5043157;28;20555;-73
2021/08/05 07:59:13;;;;;;;0.00;0.00;;;;;;;27.28;37.96;100236.63;5023678;28;20124;-65
2021/08/05 08:01:39;;;;;;;0.00;0.00;;;;;;;28.14;36.44;100238.47;5040618;28;20037;-71
2021/08/05 08:04:06;;;;;;;0.00;0.00;;;;;;;27.65;36.44;100228.03;5040633;28;20044;-67
2021/08/05 08:06:32;;;;;;;0.00;0.00;;;;;;;27.49;36.88;100213.94;5055641;28;20080;-66
2021/08/05 08:08:58;;;;;;;0.00;0.00;;;;;;;28.73;35.17;100231.50;5010380;28;20044;-65
2021/08/05 08:11:23;;;;;;;0.00;0.00;;;;;;;28.98;34.37;100231.09;5061190;28;20490;-74
2021/08/05 08:13:53;;;;;;;0.00;0.00;;;;;;;29.23;33.35;100228.81;5046562;28;20052;-69
2021/08/05 08:16:20;;;;;;;0.00;0.00;;;;;;;29.21;32.49;100230.81;5057123;28;20460;-69
2021/08/05 08:18:48;;;;;;;0.00;0.00;;;;;;;28.26;33.87;100221.06;5046197;28;20150;-67
2021/08/05 08:21:17;;;;;;;0.15;0.00;;;;;;;27.77;35.44;100226.19;5042721;28;20054;-69
2021/08/05 08:23:45;;;;;;;0.00;0.00;;;;;;;26.96;36.27;100213.81;5064216;28;20049;-70
2021/08/05 08:26:11;;;;;;;0.00;0.00;;;;;;;28.14;35.06;100230.28;5061571;28;20192;-66
2021/08/05 08:28:37;;;;;;;0.00;0.00;;;;;;;28.48;34.17;100212.81;5044318;28;20607;-68
2021/08/05 08:31:03;;;;;;;0.00;0.00;;;;;;;27.88;34.88;100226.19;5060738;28;20563;-67
2021/08/05 08:33:29;;;;;;;0.00;0.00;;;;;;;26.88;37.24;100221.72;5030448;28;20079;-69
2021/08/05 08:35:57;;;;;;;0.00;0.00;;;;;;;26.24;38.69;100231.34;5055144;28;20543;-75
2021/08/05 08:38:24;;;;;;;0.00;0.00;;;;;;;26.64;37.60;100224.56;5042459;28;20449;-66
2021/08/05 08:40:54;;;;;;;0.00;0.00;;;;;;;27.08;37.46;100229.16;5029398;28;20037;-64
2021/08/05 08:43:20;;;;;;;0.00;0.00;;;;;;;26.94;37.19;100213.09;5046975;28;20040;-69
2021/08/05 08:45:48;;;;;;;0.00;0.00;;;;;;;26.29;39.10;100223.69;5034554;28;20069;-67
2021/08/05 08:48:16;;;;;;;0.00;0.00;;;;;;;26.55;37.98;100227.97;5041637;28;20535;-66
2021/08/05 08:50:43;;;;;;;0.00;0.00;;;;;;;26.47;38.92;100222.25;5024750;28;20072;-70
2021/08/05 08:53:11;;;;;;;0.00;0.00;;;;;;;27.12;37.89;100184.38;5043567;28;20033;-69
2021/08/05 08:55:41;;;;;;;0.00;0.00;;;;;;;29.29;34.15;100228.28;5048129;28;20791;-69
2021/08/05 08:58:08;;;;;;;0.10;0.10;;;;;;;31.05;30.74;100238.97;5030559;28;20494;-68
2021/08/05 09:00:37;;;;;;;0.10;0.10;;;;;;;33.91;26.73;100231.09;5050108;28;20405;-72
2021/08/05 09:03:05;;;;;;;0.10;0.10;;;;;;;35.41;23.89;100236.88;5022298;28;20049;-68
2021/08/05 09:05:31;;;;;;;0.10;0.10;;;;;;;35.13;23.24;100248.44;5035201;28;20155;-68
2021/08/05 09:08:00;;;;;;;0.10;0.10;;;;;;;36.93;21.51;100240.63;5042020;28;20063;-66
2021/08/05 09:10:27;;;;;;;0.00;0.00;;;;;;;33.48;25.04;100225.72;5025491;28;20037;-69
2021/08/05 09:12:58;;;;;;;0.10;0.10;;;;;;;35.45;22.15;100221.69;5024943;28;20037;-69
2021/08/05 09:15:36;;;;;;;0.00;0.00;;;;;;;36.94;20.79;100235.97;5052408;28;20045;-67
2021/08/05 09:18:02;;;;;;;0.10;0.10;;;;;;;34.75;22.70;100241.75;5034021;28;20049;-68
2021/08/05 09:20:29;;;;;;;0.10;0.10;;;;;;;35.63;21.54;100230.56;5036503;28;20428;-64
2021/08/05 09:22:55;;;;;;;0.00;0.00;;;;;;;35.16;22.67;100223.28;5055291;28;20090;-68
2021/08/05 09:25:34;;;;;;;0.00;0.00;;;;;;;36.11;20.77;100221.19;5025614;28;20036;-68
2021/08/05 09:28:13;;;;;;;0.00;0.00;;;;;;;34.15;24.02;100209.13;5044104;28;20488;-66
2021/08/05 09:30:40;;;;;;;0.00;0.00;;;;;;;35.25;22.34;100201.03;5058642;28;20192;-65
2021/08/05 09:33:13;;;;;;;0.00;0.00;;;;;;;34.45;23.86;100200.25;5029046;28;20056;-67
2021/08/05 09:35:40;;;;;;;0.00;0.00;;;;;;;33.31;24.31;100186.28;5028745;28;20110;-68
2021/08/05 09:38:16;;;;;;;0.00;0.00;;;;;;;30.88;27.59;100201.38;5060900;28;20131;-70
2021/08/05 09:40:42;;;;;;;0.00;0.00;;;;;;;30.10;29.27;100186.16;5028696;28;20044;-65
2021/08/05 09:43:08;;;;;;;0.00;0.00;;;;;;;29.00;30.90;100185.44;5045937;28;20036;-66
2021/08/05 09:45:39;;;;;;;0.00;0.00;;;;;;;28.54;33.06;100182.25;5059785;28;20059;-75
2021/08/05 09:48:06;;;;;;;0.00;0.00;;;;;;;29.94;30.12;100183.13;5023026;28;20048;-67
2021/08/05 09:50:32;;;;;;;0.00;0.00;;;;;;;28.61;31.73;100172.53;5042754;28;20056;-68
2021/08/05 09:53:09;;;;;;;0.00;0.00;;;;;;;28.65;32.24;100182.19;5041471;28;20074;-72
2021/08/05 09:55:37;;;;;;;0.00;0.00;;;;;;;28.39;33.15;100178.97;5039420;28;20040;-63
2021/08/05 09:58:05;;;;;;;0.00;0.00;;;;;;;29.41;32.07;100175.25;5045488;28;20048;-66
2021/08/05 10:00:44;;;;;;;0.00;0.00;;;;;;;28.78;31.87;100171.91;5027240;28;20037;-73
2021/08/05 10:03:11;;;;;;;0.00;0.00;;;;;;;28.41;32.64;100174.28;5027138;28;20075;-67
2021/08/05 10:05:37;;;;;;;0.00;0.00;;;;;;;27.82;34.33;100164.00;5045193;28;20094;-69
2021/08/05 10:08:04;;;;;;;0.00;0.00;;;;;;;27.07;35.00;100173.88;5041313;28;20485;-70
2021/08/05 10:10:50;;;;;;;0.00;0.00;;;;;;;26.71;36.22;100171.38;5045475;28;20074;-69
2021/08/05 10:13:30;;;;;;;0.00;0.00;;;;;;;27.28;35.21;100165.81;5040708;28;20105;-71
2021/08/05 10:15:57;;;;;;;0.00;0.00;;;;;;;27.05;36.08;100159.50;5041672;28;20508;-71
2021/08/05 10:18:31;;;;;;;0.00;0.00;;;;;;;26.38;37.84;100168.56;5063077;28;20048;-71
2021/08/05 10:21:02;;;;;;;0.00;0.00;;;;;;;25.98;39.34;100172.63;5025827;28;20055;-71
2021/08/05 10:23:29;;;;;;;0.00;0.00;;;;;;;26.10;39.61;100149.94;5031449;28;20187;-72
2021/08/05 10:26:00;;;;;;;0.00;0.00;;;;;;;26.08;38.72;100165.53;5015880;28;20051;-70
2021/08/05 10:28:28;;;;;;;0.00;0.00;;;;;;;25.84;39.31;100157.34;5013493;28;21444;-69
2021/08/05 10:30:57;;;;;;;0.00;0.00;;;;;;;25.98;39.39;100152.75;5032134;28;20049;-70
2021/08/05 10:33:24;;;;;;;0.00;0.00;;;;;;;26.34;39.72;100150.75;5066460;28;20075;-69
2021/08/05 10:35:53;;;;;;;0.00;0.00;;;;;;;26.65;39.33;100158.25;5027611;28;20045;-67
2021/08/05 10:38:23;;;;;;;0.00;0.00;;;;;;;26.23;38.13;100148.03;5045173;28;20446;-66
2021/08/05 10:40:52;;;;;;;0.00;0.00;;;;;;;26.03;39.82;100148.72;5034234;28;20512;-67
2021/08/05 10:43:19;;;;;;;0.00;0.00;;;;;;;25.57;40.64;100145.00;5028605;28;20407;-67
2021/08/05 10:45:46;;;;;;;0.00;0.00;;;;;;;25.45;40.65;100138.66;5046113;28;20044;-64
2021/08/05 10:48:13;;;;;;;0.00;0.00;;;;;;;25.48;40.35;100148.41;5047945;28;20477;-61
2021/08/05 10:50:45;;;;;;;0.00;0.00;;;;;;;25.40;39.98;100150.84;5034569;28;20049;-64
2021/08/05 10:53:31;;;;;;;0.00;0.00;;;;;;;25.78;39.29;100149.69;5043581;28;20678;-64
2021/08/05 10:56:26;;;;;;;0.00;0.00;;;;;;;26.43;39.04;100149.16;5047643;28;20041;-63
2021/08/05 10:59:08;;;;;;;0.00;0.00;;;;;;;26.62;37.90;100144.03;5042162;28;20127;-64
2021/08/05 11:01:51;;;;;;;0.00;0.00;;;;;;;27.06;36.48;100144.03;5043326;28;20040;-63
2021/08/05 11:04:34;;;;;;;0.00;0.00;;;;;;;26.71;37.42;100141.44;5067091;28;20049;-63
2021/08/05 11:07:25;;;;;;;0.00;0.00;;;;;;;26.32;37.86;100136.41;5028964;28;20049;-63
2021/08/05 11:10:12;;;;;;;0.00;0.00;;;;;;;26.37;38.18;100136.91;5066152;28;20222;-61
2021/08/05 11:12:41;;;;;;;0.00;0.00;;;;;;;26.10;37.79;100124.63;5067027;28;20484;-62
2021/08/05 11:15:22;;;;;;;0.00;0.00;;;;;;;26.12;37.84;100128.06;5047152;28;20055;-63
2021/08/05 11:18:10;;;;;;;0.00;0.00;;;;;;;25.93;38.82;100132.19;5063027;28;20040;-68
2021/08/05 11:20:51;;;;;;;0.00;0.00;;;;;;;25.60;39.50;100109.47;5030812;28;20476;-64
2021/08/05 11:23:29;;;;;;;0.00;0.00;;;;;;;25.25;39.72;100111.22;5045095;28;20475;-65
2021/08/05 11:25:55;;;;;;;0.00;0.00;;;;;;;25.03;40.29;100100.19;5065342;28;20520;-64
2021/08/05 11:28:32;;;;;;;0.00;0.00;;;;;;;24.97;40.57;100101.50;5028388;28;20127;-67
2021/08/05 11:31:09;;;;;;;0.00;0.00;;;;;;;25.11;40.66;100120.38;5045124;28;20054;-65